createdAt,value
2019-03-16T00:00:38.340Z,16.70
2019-03-16T00:03:07.715Z,16.70
2019-03-16T00:05:37.112Z,16.80
2019-03-16T00:08:06.490Z,16.70
2019-03-16T00:10:36.050Z,16.70
2019-03-16T00:13:05.431Z,16.70
2019-03-16T00:15:35.902Z,16.70
2019-03-16T00:18:05.363Z,16.60
2019-03-16T00:20:34.735Z,16.70
2019-03-16T00:23:04.126Z,16.60
2019-03-16T00:25:33.674Z,16.60
2019-03-16T00:28:03.050Z,16.60
2019-03-16T00:30:32.507Z,16.60
2019-03-16T00:33:01.882Z,16.60
2019-03-16T00:35:31.262Z,16.60
2019-03-16T00:38:00.642Z,16.60
2019-03-16T00:40:30.030Z,16.50
2019-03-16T00:42:59.418Z,16.40
2019-03-16T00:45:28.871Z,16.50
2019-03-16T00:47:58.250Z,16.40
2019-03-16T00:50:27.724Z,16.40
2019-03-16T00:52:57.094Z,16.40
2019-03-16T00:55:26.492Z,16.40
2019-03-16T00:57:55.882Z,16.40
2019-03-16T01:00:26.231Z,16.40
2019-03-16T01:02:55.618Z,16.30
2019-03-16T01:05:24.995Z,16.30
2019-03-16T01:07:54.379Z,16.30
2019-03-16T01:10:23.783Z,16.20
2019-03-16T01:12:53.410Z,16.20
2019-03-16T01:15:22.888Z,16.20
2019-03-16T01:17:52.348Z,16.20
2019-03-16T01:20:21.730Z,16.20
2019-03-16T01:22:51.130Z,16.20
2019-03-16T01:25:20.512Z,16.20
2019-03-16T01:27:49.895Z,16.10
2019-03-16T01:30:19.282Z,16.20
2019-03-16T01:32:48.679Z,16.20
2019-03-16T01:35:18.070Z,16.30
2019-03-16T01:37:47.466Z,16.40
2019-03-16T01:40:16.911Z,16.60
2019-03-16T01:42:46.290Z,16.70
2019-03-16T01:45:15.667Z,16.80
2019-03-16T01:47:45.055Z,16.80
2019-03-16T01:50:14.792Z,16.80
2019-03-16T01:52:44.251Z,16.90
2019-03-16T01:55:13.815Z,16.90
2019-03-16T01:57:43.191Z,16.90
2019-03-16T02:00:14.962Z,17.00
2019-03-16T02:02:54.480Z,17.00
2019-03-16T02:05:15.431Z,17.00
2019-03-16T02:07:44.801Z,17.00
2019-03-16T02:10:14.178Z,17.10
2019-03-16T02:12:43.563Z,17.10
2019-03-16T02:15:13.368Z,17.00
2019-03-16T02:17:43.227Z,17.00
2019-03-16T02:20:15.534Z,17.00
2019-03-16T02:22:44.919Z,17.10
2019-03-16T02:25:14.376Z,17.10
2019-03-16T02:27:43.818Z,17.10
2019-03-16T02:30:13.755Z,17.20
2019-03-16T02:32:43.217Z,17.10
2019-03-16T02:35:12.674Z,17.30
2019-03-16T02:37:42.143Z,17.30
2019-03-16T02:40:30.850Z,17.20
2019-03-16T02:43:00.267Z,17.10
2019-03-16T02:45:29.655Z,17.10
2019-03-16T02:47:59.127Z,17.20
2019-03-16T02:50:28.841Z,17.20
2019-03-16T02:52:58.357Z,17.10
2019-03-16T02:55:27.848Z,17.20
2019-03-16T02:57:57.232Z,17.30
2019-03-16T03:00:26.607Z,17.40
2019-03-16T03:02:56.099Z,17.30
2019-03-16T03:05:25.463Z,17.30
2019-03-16T03:07:54.850Z,17.20
2019-03-16T03:10:24.237Z,17.20
2019-03-16T03:12:53.657Z,17.10
2019-03-16T03:15:23.041Z,17.20
2019-03-16T03:17:52.419Z,17.20
2019-03-16T03:20:21.892Z,17.20
2019-03-16T03:22:52.377Z,17.20
2019-03-16T03:25:21.844Z,17.20
2019-03-16T03:27:51.366Z,17.20
2019-03-16T03:30:20.856Z,17.30
2019-03-16T03:32:50.239Z,17.40
2019-03-16T03:35:19.620Z,17.30
2019-03-16T03:37:48.998Z,17.20
2019-03-16T03:40:18.560Z,17.20
2019-03-16T03:42:50.096Z,17.20
2019-03-16T03:45:19.568Z,17.10
2019-03-16T03:47:48.948Z,17.10
2019-03-16T03:50:18.501Z,17.10
2019-03-16T03:52:47.907Z,17.20
2019-03-16T03:55:17.296Z,17.30
2019-03-16T03:57:46.775Z,17.20
2019-03-16T04:00:19.414Z,17.40
2019-03-16T04:02:48.927Z,17.40
2019-03-16T04:05:18.392Z,17.40
2019-03-16T04:07:47.912Z,17.40
2019-03-16T04:10:17.625Z,17.40
2019-03-16T04:12:47.025Z,17.30
2019-03-16T04:15:16.670Z,17.20
2019-03-16T04:17:46.133Z,17.20
2019-03-16T04:20:15.857Z,17.10
2019-03-16T04:22:45.315Z,17.20
2019-03-16T04:25:14.693Z,17.40
2019-03-16T04:27:44.210Z,17.30
2019-03-16T04:30:13.709Z,17.20
2019-03-16T04:32:43.241Z,17.10
2019-03-16T04:35:12.780Z,17.10
2019-03-16T04:37:42.171Z,17.20
2019-03-16T04:40:12.099Z,17.30
2019-03-16T04:42:41.479Z,17.30
2019-03-16T04:45:11.458Z,17.20
2019-03-16T04:47:41.032Z,17.20
2019-03-16T04:50:11.676Z,17.20
2019-03-16T04:52:41.122Z,17.30
2019-03-16T04:55:11.495Z,17.30
2019-03-16T04:57:40.878Z,17.30
2019-03-16T05:00:14.452Z,17.20
2019-03-16T05:02:43.848Z,17.20
2019-03-16T05:05:13.247Z,17.30
2019-03-16T05:07:42.708Z,17.20
2019-03-16T05:10:12.443Z,17.10
2019-03-16T05:12:41.822Z,17.20
2019-03-16T05:15:11.532Z,17.20
2019-03-16T05:17:40.997Z,17.10
2019-03-16T05:20:13.470Z,17.10
2019-03-16T05:22:42.983Z,17.10
2019-03-16T05:25:12.714Z,17.00
2019-03-16T05:27:42.195Z,17.10
2019-03-16T05:30:13.163Z,17.20
2019-03-16T05:32:42.559Z,17.20
2019-03-16T05:35:11.951Z,17.10
2019-03-16T05:37:41.317Z,17.10
2019-03-16T05:40:12.151Z,17.20
2019-03-16T05:42:54.916Z,17.10
2019-03-16T05:45:24.299Z,17.10
2019-03-16T05:47:53.697Z,17.20
2019-03-16T05:50:23.063Z,17.10
2019-03-16T05:52:52.479Z,17.00
2019-03-16T05:55:22.928Z,17.10
2019-03-16T05:57:52.319Z,17.10
2019-03-16T06:00:21.699Z,16.90
2019-03-16T06:02:51.075Z,16.90
2019-03-16T06:05:20.455Z,17.10
2019-03-16T06:07:49.838Z,17.10
2019-03-16T06:10:19.228Z,17.20
2019-03-16T06:12:48.615Z,17.20
2019-03-16T06:15:18.004Z,17.30
2019-03-16T06:17:47.451Z,17.20
2019-03-16T06:20:16.839Z,17.20
2019-03-16T06:22:46.224Z,17.30
2019-03-16T06:25:15.676Z,17.20
2019-03-16T06:27:45.132Z,17.20
2019-03-16T06:30:15.983Z,17.20
2019-03-16T06:32:45.742Z,17.30
2019-03-16T06:35:24.669Z,17.20
2019-03-16T06:37:47.181Z,17.30
2019-03-16T06:40:16.552Z,17.40
2019-03-16T06:42:45.974Z,17.40
2019-03-16T06:45:15.379Z,17.50
2019-03-16T06:47:44.823Z,17.50
2019-03-16T06:50:15.441Z,17.60
2019-03-16T06:52:44.888Z,17.60
2019-03-16T06:55:15.741Z,17.70
2019-03-16T06:57:45.239Z,17.60
2019-03-16T07:00:18.144Z,17.70
2019-03-16T07:02:47.554Z,17.60
2019-03-16T07:05:19.825Z,17.50
2019-03-16T07:07:48.106Z,17.50
2019-03-16T07:10:17.491Z,17.70
2019-03-16T07:12:46.878Z,17.60
2019-03-16T07:15:16.863Z,17.70
2019-03-16T07:17:46.239Z,17.80
2019-03-16T07:20:16.167Z,17.80
2019-03-16T07:22:45.551Z,18.00
2019-03-16T07:25:15.046Z,17.90
2019-03-16T07:27:44.428Z,17.70
2019-03-16T07:30:14.587Z,17.60
2019-03-16T07:32:45.043Z,17.60
2019-03-16T07:35:14.463Z,17.70
2019-03-16T07:37:43.889Z,17.80
2019-03-16T07:40:14.182Z,17.80
2019-03-16T07:42:43.569Z,18.00
2019-03-16T07:45:13.558Z,18.00
2019-03-16T07:47:57.634Z,17.90
2019-03-16T07:50:27.079Z,17.90
2019-03-16T07:52:56.487Z,17.80
2019-03-16T07:55:25.982Z,17.70
2019-03-16T07:57:55.362Z,17.70
2019-03-16T08:00:24.834Z,17.80
2019-03-16T08:02:54.207Z,17.70
2019-03-16T08:05:23.591Z,17.90
2019-03-16T08:07:52.966Z,17.90
2019-03-16T08:10:22.506Z,18.00
2019-03-16T08:12:51.927Z,17.90
2019-03-16T08:15:21.323Z,18.00
2019-03-16T08:17:50.840Z,18.00
2019-03-16T08:20:20.298Z,18.00
2019-03-16T08:22:49.673Z,18.00
2019-03-16T08:25:19.063Z,18.00
2019-03-16T08:27:54.232Z,18.00
2019-03-16T08:30:19.735Z,18.00
2019-03-16T08:32:49.130Z,17.90
2019-03-16T08:35:18.592Z,17.90
2019-03-16T08:37:47.991Z,17.90
2019-03-16T08:40:17.449Z,18.00
2019-03-16T08:42:46.895Z,17.90
2019-03-16T08:45:16.375Z,17.90
2019-03-16T08:47:45.763Z,18.00
2019-03-16T08:50:15.157Z,17.90
2019-03-16T08:52:44.535Z,17.80
2019-03-16T08:55:14.011Z,17.80
2019-03-16T08:57:43.387Z,17.90
2019-03-16T09:00:14.785Z,18.00
2019-03-16T09:02:44.173Z,18.10
2019-03-16T09:05:13.557Z,18.10
2019-03-16T09:07:43.117Z,17.90
2019-03-16T09:10:12.758Z,17.90
2019-03-16T09:12:53.907Z,17.90
2019-03-16T09:15:16.887Z,17.90
2019-03-16T09:17:46.342Z,17.90
2019-03-16T09:20:15.730Z,17.90
2019-03-16T09:22:45.172Z,18.10
2019-03-16T09:25:14.558Z,18.10
2019-03-16T09:27:43.935Z,18.10
2019-03-16T09:30:14.938Z,18.10
2019-03-16T09:32:44.353Z,18.20
2019-03-16T09:35:13.812Z,18.20
2019-03-16T09:37:43.200Z,18.30
2019-03-16T09:40:12.745Z,18.30
2019-03-16T09:42:42.130Z,18.20
2019-03-16T09:45:12.653Z,18.30
2019-03-16T09:47:42.398Z,18.20
2019-03-16T09:50:12.114Z,18.30
2019-03-16T09:52:41.679Z,18.40
2019-03-16T09:55:12.159Z,18.30
2019-03-16T09:57:41.698Z,18.30
2019-03-16T10:00:30.577Z,18.30
2019-03-16T10:03:00.251Z,18.20
2019-03-16T10:05:30.446Z,18.20
2019-03-16T10:07:59.914Z,18.20
2019-03-16T10:10:30.482Z,18.20
2019-03-16T10:12:59.910Z,18.10
2019-03-16T10:15:29.356Z,18.00
2019-03-16T10:17:58.764Z,18.10
2019-03-16T10:20:28.171Z,18.10
2019-03-16T10:22:57.738Z,18.20
2019-03-16T10:25:27.116Z,18.10
2019-03-16T10:27:56.617Z,18.20
2019-03-16T10:30:26.231Z,18.30
2019-03-16T10:32:55.615Z,18.40
2019-03-16T10:35:25.011Z,18.50
2019-03-16T10:37:54.399Z,18.40
2019-03-16T10:40:23.793Z,18.30
2019-03-16T10:42:53.186Z,18.30
2019-03-16T10:45:22.699Z,18.20
2019-03-16T10:47:52.235Z,18.40
2019-03-16T10:50:21.751Z,18.40
2019-03-16T10:52:51.163Z,18.40
2019-03-16T10:55:20.547Z,18.40
2019-03-16T10:57:49.999Z,18.40
2019-03-16T11:00:19.898Z,18.50
2019-03-16T11:02:49.506Z,18.50
2019-03-16T11:05:18.946Z,18.60
2019-03-16T11:07:48.332Z,18.60
2019-03-16T11:10:17.793Z,18.70
2019-03-16T11:12:47.174Z,18.60
2019-03-16T11:15:17.701Z,18.50
2019-03-16T11:18:01.026Z,18.30
2019-03-16T11:20:30.427Z,18.40
2019-03-16T11:22:59.791Z,18.40
2019-03-16T11:25:29.275Z,18.40
2019-03-16T11:27:58.700Z,18.40
2019-03-16T11:30:28.098Z,18.40
2019-03-16T11:33:16.881Z,18.40
2019-03-16T11:35:46.279Z,18.30
2019-03-16T11:38:15.675Z,18.40
2019-03-16T11:40:45.076Z,18.40
2019-03-16T11:43:14.446Z,18.50
2019-03-16T11:45:43.820Z,18.50
2019-03-16T11:48:13.211Z,18.50
2019-03-16T11:50:42.606Z,18.50
2019-03-16T11:53:11.994Z,18.50
2019-03-16T11:55:41.479Z,18.50
2019-03-16T11:58:10.951Z,18.60
2019-03-16T12:00:40.432Z,18.60
2019-03-16T12:03:09.967Z,18.60
2019-03-16T12:05:39.399Z,18.50
2019-03-16T12:08:08.781Z,18.50
2019-03-16T12:10:38.328Z,18.50
2019-03-16T12:13:16.767Z,18.50
2019-03-16T12:15:38.792Z,18.50
2019-03-16T12:18:08.175Z,18.60
2019-03-16T12:20:37.766Z,18.60
2019-03-16T12:23:07.127Z,18.60
2019-03-16T12:25:36.607Z,18.60
2019-03-16T12:28:06.011Z,18.60
2019-03-16T12:30:35.376Z,18.60
2019-03-16T12:33:04.840Z,18.60
2019-03-16T12:35:34.201Z,18.60
2019-03-16T12:38:03.592Z,18.60
2019-03-16T12:40:32.963Z,18.60
2019-03-16T12:43:02.345Z,18.40
2019-03-16T12:45:31.871Z,18.50
2019-03-16T12:48:01.263Z,18.50
2019-03-16T12:50:30.738Z,18.60
2019-03-16T12:53:00.159Z,18.50
2019-03-16T12:55:29.608Z,18.50
2019-03-16T12:57:59.096Z,18.40
2019-03-16T13:00:28.493Z,18.40
2019-03-16T13:02:58.007Z,18.30
2019-03-16T13:05:27.382Z,18.30
2019-03-16T13:07:56.837Z,18.20
2019-03-16T13:10:26.375Z,18.10
2019-03-16T13:12:55.774Z,18.20
2019-03-16T13:15:25.407Z,18.40
2019-03-16T13:17:54.852Z,18.50
2019-03-16T13:20:24.312Z,18.50
2019-03-16T13:22:53.698Z,18.20
2019-03-16T13:25:23.099Z,18.10
2019-03-16T13:27:52.487Z,18.10
2019-03-16T13:30:22.124Z,18.20
2019-03-16T13:32:51.514Z,18.20
2019-03-16T13:35:20.989Z,18.20
2019-03-16T13:37:50.636Z,18.20
2019-03-16T13:40:21.567Z,18.30
2019-03-16T13:42:51.046Z,18.30
2019-03-16T13:45:20.436Z,18.30
2019-03-16T13:47:51.904Z,18.10
2019-03-16T13:50:21.374Z,18.20
2019-03-16T13:52:51.138Z,18.30
2019-03-16T13:55:20.506Z,18.30
2019-03-16T13:57:49.958Z,18.30
2019-03-16T14:00:20.814Z,18.50
2019-03-16T14:03:09.554Z,18.50
2019-03-16T14:05:39.015Z,18.50
2019-03-16T14:08:08.475Z,18.50
2019-03-16T14:10:39.082Z,18.50
2019-03-16T14:13:08.510Z,18.50
2019-03-16T14:15:37.979Z,18.50
2019-03-16T14:18:07.356Z,18.50
2019-03-16T14:20:36.860Z,18.70
2019-03-16T14:23:06.491Z,18.80
2019-03-16T14:25:37.342Z,18.80
2019-03-16T14:28:06.849Z,18.80
2019-03-16T14:30:41.750Z,18.70
2019-03-16T14:33:07.391Z,18.60
2019-03-16T14:35:36.769Z,18.60
2019-03-16T14:38:06.163Z,18.40
2019-03-16T14:40:35.719Z,18.40
2019-03-16T14:43:05.100Z,18.50
2019-03-16T14:45:34.754Z,18.40
2019-03-16T14:48:04.136Z,18.40
2019-03-16T14:50:33.624Z,18.50
2019-03-16T14:53:22.405Z,18.60
2019-03-16T14:55:51.823Z,18.50
2019-03-16T14:58:27.579Z,18.30
2019-03-16T15:00:58.369Z,18.30
2019-03-16T15:03:27.758Z,18.30
2019-03-16T15:05:57.143Z,18.20
2019-03-16T15:08:26.548Z,18.20
2019-03-16T15:10:56.012Z,18.20
2019-03-16T15:13:26.946Z,18.30
2019-03-16T15:15:56.566Z,18.30
2019-03-16T15:18:25.994Z,18.30
2019-03-16T15:20:56.146Z,18.40
2019-03-16T15:23:25.611Z,18.40
2019-03-16T15:25:55.042Z,18.40
2019-03-16T15:28:24.628Z,18.40
2019-03-16T15:30:54.080Z,18.30
2019-03-16T15:33:23.623Z,18.30
2019-03-16T15:35:53.103Z,18.30
2019-03-16T15:38:22.496Z,18.20
2019-03-16T15:40:51.891Z,18.30
2019-03-16T15:43:22.262Z,18.40
2019-03-16T15:45:51.651Z,18.30
2019-03-16T15:48:21.037Z,18.30
2019-03-16T15:50:50.427Z,18.20
2019-03-16T15:53:19.896Z,18.20
2019-03-16T15:55:49.464Z,18.20
2019-03-16T15:58:18.860Z,18.30
2019-03-16T16:00:48.336Z,18.30
2019-03-16T16:03:17.777Z,18.50
2019-03-16T16:05:47.287Z,18.30
2019-03-16T16:08:19.273Z,18.30
2019-03-16T16:10:59.710Z,18.40
2019-03-16T16:13:22.599Z,18.30
2019-03-16T16:15:52.068Z,18.30
2019-03-16T16:18:21.626Z,18.20
2019-03-16T16:20:52.275Z,18.20
2019-03-16T16:23:21.743Z,18.30
2019-03-16T16:25:51.132Z,18.40
2019-03-16T16:28:20.717Z,18.50
2019-03-16T16:31:16.333Z,18.40
2019-03-16T16:33:40.895Z,18.40
2019-03-16T16:36:11.914Z,18.50
2019-03-16T16:38:41.446Z,18.50
2019-03-16T16:41:10.962Z,18.60
2019-03-16T16:43:40.349Z,18.60
2019-03-16T16:46:09.792Z,18.60
2019-03-16T16:48:39.369Z,18.60
2019-03-16T16:51:08.751Z,18.60
2019-03-16T16:53:38.214Z,18.60
2019-03-16T16:56:07.692Z,18.70
2019-03-16T16:58:37.115Z,18.70
2019-03-16T17:01:06.647Z,18.60
2019-03-16T17:03:36.210Z,18.60
2019-03-16T17:06:05.602Z,18.60
2019-03-16T17:08:35.052Z,18.50
2019-03-16T17:11:04.571Z,18.50
2019-03-16T17:13:33.952Z,18.50
2019-03-16T17:16:03.508Z,18.40
2019-03-16T17:18:32.880Z,18.40
2019-03-16T17:21:02.259Z,18.50
2019-03-16T17:23:31.638Z,18.40
2019-03-16T17:26:01.107Z,18.40
2019-03-16T17:28:30.495Z,18.50
2019-03-16T17:31:02.214Z,18.40
2019-03-16T17:33:31.744Z,18.40
2019-03-16T17:36:01.193Z,18.40
2019-03-16T17:38:30.578Z,18.30
2019-03-16T17:40:59.995Z,18.30
2019-03-16T17:43:29.433Z,18.30
2019-03-16T17:45:58.908Z,18.30
2019-03-16T17:48:29.757Z,18.30
2019-03-16T17:50:59.355Z,18.30
2019-03-16T17:53:28.811Z,18.40
2019-03-16T17:55:58.187Z,18.30
2019-03-16T17:58:27.736Z,18.30
2019-03-16T18:00:57.172Z,18.40
2019-03-16T18:03:26.562Z,18.40
2019-03-16T18:05:55.939Z,18.30
2019-03-16T18:08:25.379Z,18.20
2019-03-16T18:10:54.759Z,18.20
2019-03-16T18:13:24.148Z,18.30
2019-03-16T18:15:53.526Z,18.20
2019-03-16T18:18:22.932Z,18.30
2019-03-16T18:20:52.317Z,18.40
2019-03-16T18:23:21.724Z,18.50
2019-03-16T18:25:51.124Z,18.50
2019-03-16T18:28:20.511Z,18.60
2019-03-16T18:31:04.652Z,18.60
2019-03-16T18:33:34.159Z,18.60
2019-03-16T18:36:03.528Z,18.70
2019-03-16T18:38:32.906Z,18.70
2019-03-16T18:41:02.332Z,18.60
2019-03-16T18:43:31.836Z,18.50
2019-03-16T18:46:01.223Z,18.40
2019-03-16T18:48:30.682Z,18.50
2019-03-16T18:51:00.135Z,18.40
2019-03-16T18:53:49.005Z,18.40
2019-03-16T18:56:18.494Z,18.20
2019-03-16T18:58:47.913Z,18.10
2019-03-16T19:01:17.403Z,18.00
2019-03-16T19:03:46.801Z,17.80
2019-03-16T19:06:16.335Z,17.80
2019-03-16T19:08:45.786Z,17.90
2019-03-16T19:11:15.337Z,17.90
2019-03-16T19:13:44.903Z,17.90
2019-03-16T19:16:14.353Z,18.00
2019-03-16T19:18:43.728Z,17.90
2019-03-16T19:21:13.136Z,17.80
2019-03-16T19:23:42.508Z,17.70
2019-03-16T19:26:11.979Z,17.70
2019-03-16T19:28:41.367Z,17.80
2019-03-16T19:31:10.806Z,17.90
2019-03-16T19:33:40.186Z,18.00
2019-03-16T19:36:09.572Z,18.00
2019-03-16T19:38:39.039Z,18.00
2019-03-16T19:41:08.421Z,18.00
2019-03-16T19:43:37.823Z,17.80
2019-03-16T19:46:08.243Z,17.80
2019-03-16T19:48:37.638Z,17.90
2019-03-16T19:51:07.032Z,18.00
2019-03-16T19:53:36.401Z,17.90
2019-03-16T19:56:08.644Z,17.70
2019-03-16T19:58:37.044Z,17.70
2019-03-16T20:01:06.437Z,17.60
2019-03-16T20:03:36.047Z,17.70
2019-03-16T20:06:05.443Z,17.90
2019-03-16T20:08:35.001Z,17.90
2019-03-16T20:11:06.733Z,17.70
2019-03-16T20:13:36.368Z,17.70
2019-03-16T20:16:05.767Z,17.60
2019-03-16T20:18:35.158Z,17.60
2019-03-16T20:21:04.624Z,17.50
2019-03-16T20:23:34.097Z,17.60
2019-03-16T20:26:03.486Z,17.80
2019-03-16T20:28:32.869Z,17.90
2019-03-16T20:31:02.257Z,18.00
2019-03-16T20:33:31.623Z,17.90
2019-03-16T20:36:01.027Z,17.80
2019-03-16T20:38:30.399Z,17.80
2019-03-16T20:40:59.824Z,17.80
2019-03-16T20:43:29.271Z,17.70
2019-03-16T20:45:58.674Z,17.70
2019-03-16T20:48:28.275Z,17.70
2019-03-16T20:50:57.656Z,17.70
2019-03-16T20:53:27.115Z,17.80
2019-03-16T20:55:56.527Z,17.90
2019-03-16T20:58:25.917Z,18.10
2019-03-16T21:00:58.066Z,18.20
2019-03-16T21:03:26.390Z,18.10
2019-03-16T21:05:55.787Z,18.00
2019-03-16T21:08:25.179Z,17.90
2019-03-16T21:10:57.248Z,18.00
2019-03-16T21:13:27.598Z,18.00
2019-03-16T21:15:57.247Z,18.20
2019-03-16T21:18:28.411Z,18.20
2019-03-16T21:20:57.787Z,18.20
2019-03-16T21:23:27.223Z,18.10
2019-03-16T21:25:56.700Z,18.00
2019-03-16T21:28:26.082Z,18.20
2019-03-16T21:30:55.464Z,18.30
2019-03-16T21:33:29.483Z,18.40
2019-03-16T21:35:56.083Z,18.50
2019-03-16T21:38:25.459Z,18.40
2019-03-16T21:40:54.856Z,18.30
2019-03-16T21:43:43.791Z,18.30
2019-03-16T21:46:13.239Z,18.50
2019-03-16T21:48:42.643Z,18.60
2019-03-16T21:51:12.195Z,18.60
2019-03-16T21:53:41.696Z,18.80
2019-03-16T21:56:11.155Z,18.80
2019-03-16T21:58:40.559Z,18.90
2019-03-16T22:01:10.046Z,19.00
2019-03-16T22:03:58.841Z,19.10
2019-03-16T22:06:28.232Z,19.10
2019-03-16T22:08:57.635Z,18.90
2019-03-16T22:11:28.097Z,18.90
2019-03-16T22:13:57.541Z,19.00
2019-03-16T22:16:26.947Z,19.10
2019-03-16T22:18:56.503Z,19.20
2019-03-16T22:21:25.897Z,19.20
2019-03-16T22:23:55.483Z,19.00
2019-03-16T22:26:24.851Z,18.90
2019-03-16T22:28:54.239Z,18.80
2019-03-16T22:31:23.652Z,18.60
2019-03-16T22:33:54.680Z,18.50
2019-03-16T22:36:24.106Z,18.60
2019-03-16T22:38:53.658Z,18.60
2019-03-16T22:41:23.035Z,18.50
2019-03-16T22:43:52.425Z,18.50
2019-03-16T22:46:21.803Z,18.40
2019-03-16T22:48:51.199Z,18.50
2019-03-16T22:51:20.670Z,18.60
2019-03-16T22:53:50.139Z,18.70
2019-03-16T22:56:19.521Z,18.80
2019-03-16T22:58:49.071Z,18.60
2019-03-16T23:01:18.458Z,18.60
2019-03-16T23:03:47.839Z,18.60
2019-03-16T23:06:17.291Z,18.60
2019-03-16T23:08:46.679Z,18.70
2019-03-16T23:11:16.071Z,18.60
2019-03-16T23:13:45.453Z,18.50
2019-03-16T23:16:14.831Z,18.50
2019-03-16T23:18:44.207Z,18.40
2019-03-16T23:21:13.609Z,18.40
2019-03-16T23:23:43.050Z,18.30
2019-03-16T23:26:12.592Z,18.30
2019-03-16T23:28:42.015Z,18.30
2019-03-16T23:31:25.624Z,18.30
2019-03-16T23:33:55.084Z,18.30
2019-03-16T23:36:24.471Z,18.40
2019-03-16T23:38:53.920Z,18.40
2019-03-16T23:41:23.374Z,18.30
2019-03-16T23:43:52.766Z,18.30
2019-03-16T23:46:22.160Z,18.20
2019-03-16T23:48:51.554Z,18.00
2019-03-16T23:51:20.931Z,18.10
2019-03-16T23:53:50.326Z,18.10
2019-03-16T23:56:19.696Z,18.00
2019-03-16T23:58:49.091Z,17.90
